Time;durP1;ratioP1;P1;durP2;ratioP2;P2;SDS_P1;SDS_P2;PMS_P1;PMS_P2;Temp;Humidity;BMP_temperature;BMP_pressure;BME280_temperature;BME280_humidity;BME280_pressure;Samples;Min_cycle;Max_cycle;Signal;HPM_P1;HPM_P2
2022/08/04 00:00:16;;;;;;;1.77;1.67;;;24.00;99.90;;;;;;5043301;28;20256;-79
2022/08/04 00:02:56;;;;;;;1.85;1.73;;;24.00;99.90;;;;;;5043147;28;20565;-77
2022/08/04 00:05:36;;;;;;;2.13;1.70;;;24.00;99.90;;;;;;5046557;28;20215;-78
2022/08/04 00:08:11;;;;;;;2.00;1.90;;;24.10;99.90;;;;;;5042920;28;20214;-78
2022/08/04 00:10:40;;;;;;;1.80;1.70;;;24.00;99.90;;;;;;5044984;28;20683;-79
2022/08/04 00:13:10;;;;;;;2.20;2.00;;;24.00;99.90;;;;;;5043646;28;20222;-80
2022/08/04 00:15:38;;;;;;;1.38;1.35;;;23.90;99.90;;;;;;5041770;28;20640;-79
2022/08/04 00:18:08;;;;;;;1.83;1.73;;;23.90;99.90;;;;;;5048172;28;20221;-78
2022/08/04 00:20:39;;;;;;;1.80;1.70;;;23.90;99.90;;;;;;5046543;28;20198;-79
2022/08/04 00:23:07;;;;;;;2.55;1.77;;;24.00;99.90;;;;;;5043881;28;20211;-80
2022/08/04 00:25:39;;;;;;;1.70;1.60;;;24.00;99.90;;;;;;5047757;28;20223;-81
2022/08/04 00:28:08;;;;;;;1.60;1.50;;;24.00;99.90;;;;;;5048289;28;20627;-79
2022/08/04 00:30:36;;;;;;;1.60;1.50;;;24.10;99.90;;;;;;5044760;28;20219;-79
2022/08/04 00:33:03;;;;;;;2.28;1.83;;;24.10;99.90;;;;;;5044895;28;20211;-78
2022/08/04 00:35:31;;;;;;;3.20;1.92;;;24.00;99.90;;;;;;5047407;28;20219;-78
2022/08/04 00:37:59;;;;;;;1.60;1.50;;;23.90;99.90;;;;;;5052068;28;20871;-78
2022/08/04 00:40:36;;;;;;;2.10;2.00;;;23.90;99.90;;;;;;5046928;28;20187;-77
2022/08/04 00:43:19;;;;;;;3.05;1.58;;;23.90;99.90;;;;;;5055561;28;20215;-79
2022/08/04 00:46:13;;;;;;;1.70;1.60;;;23.90;99.90;;;;;;5055976;28;20712;-78
2022/08/04 00:49:00;;;;;;;1.80;1.70;;;23.90;99.90;;;;;;5054885;28;20229;-78
2022/08/04 00:51:37;;;;;;;1.80;1.70;;;23.80;99.90;;;;;;5053375;28;20633;-78
2022/08/04 00:54:12;;;;;;;2.25;2.08;;;23.80;99.90;;;;;;5056325;28;20219;-78
2022/08/04 00:57:03;;;;;;;1.70;1.60;;;23.80;99.90;;;;;;5055586;28;20210;-78
2022/08/04 00:59:49;;;;;;;1.92;1.83;;;23.90;99.90;;;;;;5051226;28;20272;-78
2022/08/04 01:02:28;;;;;;;1.70;1.60;;;23.80;99.90;;;;;;5045819;28;20218;-79
2022/08/04 01:05:03;;;;;;;2.00;1.90;;;23.70;99.90;;;;;;5042042;28;20759;-80
2022/08/04 01:07:54;;;;;;;1.85;1.75;;;23.70;99.90;;;;;;5055342;28;20586;-78
2022/08/04 01:10:30;;;;;;;1.83;1.73;;;23.70;99.90;;;;;;5050820;28;20601;-79
2022/08/04 01:13:21;;;;;;;4.40;1.90;;;23.70;99.90;;;;;;5043380;28;20701;-78
2022/08/04 01:16:04;;;;;;;1.80;1.70;;;23.60;99.90;;;;;;5049327;28;20234;-79
2022/08/04 01:18:39;;;;;;;1.88;1.77;;;23.60;99.90;;;;;;5051582;28;20242;-77
2022/08/04 01:21:30;;;;;;;2.00;1.90;;;23.60;99.90;;;;;;5052894;28;20194;-78
2022/08/04 01:24:24;;;;;;;1.90;1.80;;;23.60;99.90;;;;;;5051116;28;20226;-78
2022/08/04 01:26:55;;;;;;;1.60;1.50;;;23.60;99.90;;;;;;5051978;28;20278;-78
2022/08/04 01:29:27;;;;;;;1.58;1.48;;;23.60;99.90;;;;;;5051694;28;20192;-78
2022/08/04 01:32:05;;;;;;;1.55;1.45;;;23.70;99.90;;;;;;5049958;28;20207;-79
2022/08/04 01:34:36;;;;;;;1.88;1.27;;;23.70;99.90;;;;;;5046837;28;20192;-78
2022/08/04 01:37:12;;;;;;;1.50;1.42;;;23.70;99.90;;;;;;5058870;28;20222;-78
2022/08/04 01:39:47;;;;;;;1.50;1.50;;;23.70;99.90;;;;;;5046545;28;20242;-78
2022/08/04 01:42:18;;;;;;;1.30;1.30;;;23.70;99.90;;;;;;5050823;28;20226;-78
2022/08/04 01:44:49;;;;;;;1.50;1.40;;;23.70;99.90;;;;;;5055495;28;20227;-78
2022/08/04 01:47:21;;;;;;;1.60;1.50;;;23.70;99.90;;;;;;5055016;28;20611;-78
2022/08/04 01:49:51;;;;;;;1.70;1.60;;;23.70;99.90;;;;;;5056225;28;20191;-78
2022/08/04 01:52:20;;;;;;;1.83;1.73;;;23.70;99.90;;;;;;5054896;28;20242;-79
2022/08/04 01:54:48;;;;;;;2.45;2.00;;;23.70;99.90;;;;;;5050477;28;20222;-78
2022/08/04 01:57:18;;;;;;;1.52;1.42;;;23.70;99.90;;;;;;5054257;28;20242;-78
2022/08/04 01:59:51;;;;;;;1.50;1.40;;;23.70;99.90;;;;;;5053798;28;20630;-78
2022/08/04 02:02:22;;;;;;;1.60;1.50;;;23.60;99.90;;;;;;5051092;28;20221;-77
2022/08/04 02:04:49;;;;;;;1.60;1.50;;;23.60;99.90;;;;;;5051452;28;20709;-79
2022/08/04 02:07:39;;;;;;;1.42;1.33;;;23.60;99.90;;;;;;5049806;28;20219;-77
2022/08/04 02:10:11;;;;;;;1.90;1.73;;;23.60;99.90;;;;;;5043373;28;20195;-79
2022/08/04 02:12:52;;;;;;;1.80;1.70;;;23.60;99.90;;;;;;5042377;28;20223;-79
2022/08/04 02:15:29;;;;;;;1.90;1.80;;;23.60;99.90;;;;;;5042994;28;20222;-78
2022/08/04 02:18:08;;;;;;;1.70;1.60;;;23.50;99.90;;;;;;5044102;28;20250;-78
2022/08/04 02:20:39;;;;;;;1.98;1.70;;;23.50;99.90;;;;;;5042952;28;20214;-79
2022/08/04 02:23:08;;;;;;;1.80;1.70;;;23.40;99.90;;;;;;5044070;28;20214;-78
2022/08/04 02:25:40;;;;;;;1.70;1.60;;;23.30;99.90;;;;;;5042725;28;20219;-78
2022/08/04 02:28:18;;;;;;;1.77;1.67;;;23.40;99.90;;;;;;5040685;28;20220;-78
2022/08/04 02:30:57;;;;;;;1.90;1.77;;;23.40;99.90;;;;;;5047932;28;20230;-78
2022/08/04 02:33:34;;;;;;;2.15;1.70;;;23.40;99.90;;;;;;5047597;28;20241;-78
2022/08/04 02:36:04;;;;;;;1.70;1.60;;;23.40;99.90;;;;;;5044060;28;20214;-79
2022/08/04 02:38:42;;;;;;;1.48;1.38;;;23.40;99.90;;;;;;5043183;28;20226;-78
2022/08/04 02:41:10;;;;;;;2.28;1.90;;;23.40;99.90;;;;;;5048045;28;20194;-80
2022/08/04 02:43:41;;;;;;;1.60;1.50;;;23.30;99.90;;;;;;5041696;28;20226;-78
2022/08/04 02:46:12;;;;;;;1.52;1.42;;;23.30;99.90;;;;;;5042233;28;20215;-78
2022/08/04 02:48:43;;;;;;;1.80;1.70;;;23.40;99.90;;;;;;5043622;28;20233;-77
2022/08/04 02:51:13;;;;;;;1.90;1.80;;;23.40;99.90;;;;;;5043122;28;20698;-78
2022/08/04 02:53:43;;;;;;;1.90;1.80;;;23.30;99.90;;;;;;5041879;28;20222;-76
2022/08/04 02:56:14;;;;;;;1.63;1.52;;;23.30;99.90;;;;;;5045940;28;20214;-77
2022/08/04 02:58:42;;;;;;;1.75;1.65;;;23.30;99.90;;;;;;5041850;28;20214;-79
2022/08/04 03:01:11;;;;;;;2.25;2.05;;;23.30;99.90;;;;;;5043712;28;20194;-77
2022/08/04 03:03:46;;;;;;;1.90;1.67;;;23.40;99.90;;;;;;5046634;28;20692;-76
2022/08/04 03:06:57;;;;;;;2.03;1.92;;;23.40;99.90;;;;;;5047620;28;20222;-77
2022/08/04 03:09:42;;;;;;;1.83;1.70;;;23.40;99.90;;;;;;4999317;28;20704;-78
2022/08/04 03:12:46;;;;;;;1.40;1.35;;;23.40;99.90;;;;;;5045987;28;20644;-78
2022/08/04 03:15:52;;;;;;;1.80;1.70;;;23.40;99.90;;;;;;5051477;28;20226;-77
2022/08/04 03:18:57;;;;;;;1.70;1.60;;;23.40;99.90;;;;;;5051131;28;20219;-77
2022/08/04 03:21:56;;;;;;;1.85;1.75;;;23.30;99.90;;;;;;5045056;28;20203;-78
2022/08/04 03:24:53;;;;;;;1.67;1.58;;;23.30;99.90;;;;;;5044473;28;20225;-78
2022/08/04 03:27:42;;;;;;;1.70;1.60;;;23.30;99.90;;;;;;5040547;28;20214;-78
2022/08/04 03:30:13;;;;;;;1.85;1.75;;;23.30;99.90;;;;;;5042554;28;20690;-77
2022/08/04 03:33:08;;;;;;;1.70;1.60;;;23.30;99.90;;;;;;5045914;28;20268;-78
2022/08/04 03:36:11;;;;;;;1.70;1.60;;;23.30;99.90;;;;;;5041146;28;20223;-78
2022/08/04 03:39:20;;;;;;;1.95;1.85;;;23.30;99.90;;;;;;5016984;28;20607;-77
2022/08/04 03:42:14;;;;;;;2.05;1.95;;;23.20;99.90;;;;;;5039519;28;20191;-78
2022/08/04 03:45:10;;;;;;;2.72;2.00;;;23.10;99.90;;;;;;5042600;28;20214;-77
2022/08/04 03:47:54;;;;;;;2.22;2.13;;;23.10;99.90;;;;;;5013197;28;20234;-76
2022/08/04 03:50:46;;;;;;;2.10;1.90;;;23.10;99.90;;;;;;5041943;28;20604;-76
2022/08/04 03:53:35;;;;;;;2.17;1.88;;;23.10;99.90;;;;;;5037253;28;20244;-76
2022/08/04 03:56:35;;;;;;;2.00;1.90;;;23.10;99.90;;;;;;5044754;28;20229;-76
2022/08/04 03:59:50;;;;;;;2.03;1.92;;;23.00;99.90;;;;;;5035027;28;20226;-76
2022/08/04 04:02:54;;;;;;;2.00;1.90;;;23.00;99.90;;;;;;5029561;28;20312;-76
2022/08/04 04:05:59;;;;;;;1.98;1.88;;;23.10;99.90;;;;;;5042649;28;20214;-75
2022/08/04 04:08:55;;;;;;;2.03;1.92;;;23.10;99.90;;;;;;5042559;28;20317;-76
2022/08/04 04:11:51;;;;;;;1.98;1.80;;;23.10;99.90;;;;;;5042928;28;20288;-76
2022/08/04 04:15:00;;;;;;;2.00;1.90;;;23.10;99.90;;;;;;5046914;28;20370;-77
2022/08/04 04:17:54;;;;;;;2.15;1.92;;;23.10;99.90;;;;;;5018863;28;20229;-78
2022/08/04 04:21:02;;;;;;;1.67;1.58;;;23.10;99.90;;;;;;5046656;28;20716;-77
2022/08/04 04:23:57;;;;;;;2.03;1.92;;;23.10;99.90;;;;;;5044743;28;20222;-77
2022/08/04 04:26:55;;;;;;;2.03;1.92;;;23.10;99.90;;;;;;5049432;28;20724;-77
2022/08/04 04:29:38;;;;;;;2.10;2.00;;;23.10;99.90;;;;;;5046974;28;20231;-78
2022/08/04 04:32:18;;;;;;;2.00;1.90;;;23.00;99.90;;;;;;5050399;28;20226;-78
2022/08/04 04:34:57;;;;;;;2.20;1.98;;;23.00;99.90;;;;;;5051178;28;20234;-78
2022/08/04 04:37:41;;;;;;;2.50;2.30;;;23.00;99.90;;;;;;5048745;28;20684;-78
2022/08/04 04:40:25;;;;;;;2.40;2.20;;;23.00;99.90;;;;;;5049278;28;20199;-77
2022/08/04 04:43:13;;;;;;;2.15;2.05;;;23.00;99.90;;;;;;5047948;28;20215;-77
2022/08/04 04:45:50;;;;;;;2.40;1.80;;;23.00;99.90;;;;;;5044403;28;20308;-77
2022/08/04 04:48:31;;;;;;;2.78;2.00;;;23.00;99.90;;;;;;5044106;28;20222;-77
2022/08/04 04:51:12;;;;;;;2.10;2.00;;;23.00;99.90;;;;;;5046137;28;20798;-76
2022/08/04 04:53:50;;;;;;;1.80;1.70;;;23.10;99.90;;;;;;5045224;28;20214;-75
2022/08/04 04:56:27;;;;;;;1.95;1.85;;;23.10;99.90;;;;;;5044527;28;20219;-76
2022/08/04 04:58:56;;;;;;;2.00;1.90;;;23.10;99.90;;;;;;5047202;28;20238;-76
2022/08/04 05:02:05;;;;;;;1.77;1.67;;;23.10;99.90;;;;;;5046626;28;20199;-77
2022/08/04 05:05:10;;;;;;;2.13;2.03;;;23.20;99.90;;;;;;4988189;28;20588;-77
2022/08/04 05:08:09;;;;;;;1.98;1.88;;;23.40;99.90;;;;;;5044014;28;20260;-76
2022/08/04 05:10:51;;;;;;;1.80;1.70;;;23.50;99.90;;;;;;5045644;28;20202;-77
2022/08/04 05:13:34;;;;;;;2.00;1.80;;;23.70;99.90;;;;;;5044597;28;20231;-77
2022/08/04 05:16:07;;;;;;;1.70;1.60;;;23.90;99.90;;;;;;5046052;28;20223;-78
2022/08/04 05:18:40;;;;;;;2.10;2.00;;;24.10;99.90;;;;;;5043823;28;20218;-79
2022/08/04 05:21:19;;;;;;;2.05;1.95;;;24.20;99.90;;;;;;5042611;28;20214;-78
2022/08/04 05:23:49;;;;;;;3.67;2.05;;;24.30;99.90;;;;;;5045378;28;20211;-78
2022/08/04 05:26:18;;;;;;;2.15;2.05;;;24.40;99.90;;;;;;5045911;28;20214;-78
2022/08/04 05:28:54;;;;;;;3.13;2.67;;;24.40;99.90;;;;;;5043242;28;20243;-76
2022/08/04 05:31:25;;;;;;;2.63;2.42;;;24.40;99.90;;;;;;5047128;28;20191;-78
2022/08/04 05:33:56;;;;;;;2.50;2.30;;;24.30;99.90;;;;;;5044723;28;20211;-77
2022/08/04 05:36:33;;;;;;;2.70;2.50;;;24.20;99.90;;;;;;5045884;28;20314;-77
2022/08/04 05:39:02;;;;;;;4.35;2.60;;;24.30;99.90;;;;;;5045163;28;20210;-76
2022/08/04 05:41:30;;;;;;;2.33;2.20;;;24.40;99.90;;;;;;5047506;28;20206;-78
2022/08/04 05:44:00;;;;;;;2.28;2.17;;;24.50;99.90;;;;;;5046109;28;22179;-78
2022/08/04 05:46:29;;;;;;;2.65;2.45;;;24.60;99.90;;;;;;5048184;28;20219;-78
2022/08/04 05:48:56;;;;;;;2.40;2.30;;;24.80;99.90;;;;;;5047290;28;20689;-78
2022/08/04 05:51:24;;;;;;;2.33;2.13;;;25.00;99.90;;;;;;5050026;28;20568;-78
2022/08/04 05:53:54;;;;;;;3.35;2.72;;;25.10;99.90;;;;;;5042004;28;20218;-77
2022/08/04 05:56:21;;;;;;;2.72;2.50;;;25.20;99.90;;;;;;5042921;28;20239;-79
2022/08/04 05:58:49;;;;;;;2.50;2.38;;;25.30;99.90;;;;;;5044118;28;20322;-78
2022/08/04 06:01:20;;;;;;;2.78;2.50;;;25.50;99.90;;;;;;5040921;28;20199;-81
2022/08/04 06:03:49;;;;;;;2.90;2.33;;;25.60;99.90;;;;;;5044831;28;20222;-72
2022/08/04 06:06:19;;;;;;;2.70;2.50;;;25.70;99.90;;;;;;5046728;28;20306;-72
2022/08/04 06:08:46;;;;;;;2.70;2.30;;;25.80;99.90;;;;;;5039693;28;20222;-72
2022/08/04 06:11:14;;;;;;;2.80;2.60;;;25.80;99.90;;;;;;5045103;28;20210;-72
2022/08/04 06:13:48;;;;;;;2.55;2.45;;;25.60;99.90;;;;;;5042206;28;20229;-73
2022/08/04 06:16:18;;;;;;;3.72;2.70;;;25.60;99.90;;;;;;5046275;28;20613;-73
2022/08/04 06:18:49;;;;;;;2.63;2.50;;;25.60;99.90;;;;;;5043130;28;20527;-72
2022/08/04 06:21:19;;;;;;;2.80;2.60;;;25.80;99.90;;;;;;5043296;28;20237;-72
2022/08/04 06:23:46;;;;;;;2.90;2.70;;;25.90;99.90;;;;;;5043297;28;20233;-73
2022/08/04 06:26:18;;;;;;;2.97;2.78;;;25.90;99.90;;;;;;5046525;28;20708;-73
2022/08/04 06:28:47;;;;;;;2.88;2.53;;;26.00;99.90;;;;;;5040880;28;20238;-72
2022/08/04 06:31:20;;;;;;;3.08;2.72;;;26.20;99.90;;;;;;5046990;28;20206;-73
2022/08/04 06:33:51;;;;;;;2.75;2.55;;;26.30;99.90;;;;;;5042713;28;20223;-72
2022/08/04 06:36:19;;;;;;;2.90;2.70;;;26.40;99.90;;;;;;5044555;28;20225;-73
2022/08/04 06:38:47;;;;;;;2.90;2.65;;;26.50;99.90;;;;;;5044931;28;20269;-72
2022/08/04 06:41:14;;;;;;;2.72;2.53;;;26.50;99.90;;;;;;5041977;28;20195;-72
2022/08/04 06:43:41;;;;;;;2.83;2.63;;;26.40;99.90;;;;;;5041872;28;20230;-72
2022/08/04 06:46:09;;;;;;;4.55;3.20;;;26.30;99.90;;;;;;5042316;28;20976;-73
2022/08/04 06:48:37;;;;;;;3.42;3.20;;;26.30;99.90;;;;;;5040140;28;21822;-72
2022/08/04 06:51:07;;;;;;;3.20;3.00;;;26.20;99.90;;;;;;5043174;28;20202;-73
2022/08/04 06:53:34;;;;;;;4.47;3.10;;;26.20;99.90;;;;;;5043442;28;20233;-73
2022/08/04 06:56:02;;;;;;;3.40;2.90;;;26.20;99.90;;;;;;5041184;28;20214;-73
2022/08/04 06:58:31;;;;;;;3.70;3.17;;;26.40;99.90;;;;;;5048373;28;20218;-73
2022/08/04 07:01:01;;;;;;;3.08;2.88;;;26.40;99.90;;;;;;5044158;28;20737;-73
2022/08/04 07:03:29;;;;;;;3.42;3.13;;;26.50;99.90;;;;;;5042278;28;20243;-72
2022/08/04 07:05:57;;;;;;;3.72;3.42;;;26.60;99.90;;;;;;5044361;28;20215;-74
2022/08/04 07:08:25;;;;;;;3.17;2.97;;;26.60;99.90;;;;;;5040357;28;20223;-73
2022/08/04 07:10:53;;;;;;;3.10;2.80;;;26.60;99.90;;;;;;5042040;28;20195;-72
2022/08/04 07:13:22;;;;;;;3.17;2.97;;;26.70;99.90;;;;;;5041758;28;20906;-72
2022/08/04 07:15:50;;;;;;;4.53;3.33;;;27.00;99.90;;;;;;5044672;28;20728;-73
2022/08/04 07:18:17;;;;;;;3.45;3.05;;;27.10;99.90;;;;;;5045615;28;20226;-72
2022/08/04 07:20:46;;;;;;;3.80;3.17;;;27.30;99.90;;;;;;5046193;28;20207;-72
2022/08/04 07:23:18;;;;;;;3.88;3.30;;;27.40;99.90;;;;;;5038725;28;20211;-72
2022/08/04 07:25:51;;;;;;;3.08;2.88;;;27.30;99.90;;;;;;5038972;28;20740;-72
2022/08/04 07:28:19;;;;;;;3.13;2.92;;;27.30;99.90;;;;;;5041401;28;20219;-72
2022/08/04 07:30:48;;;;;;;3.40;3.05;;;27.40;99.90;;;;;;5039335;28;20195;-75
2022/08/04 07:33:16;;;;;;;4.28;2.97;;;27.40;99.90;;;;;;5042282;28;20222;-74
2022/08/04 07:35:43;;;;;;;3.47;3.28;;;27.50;99.90;;;;;;5042836;28;20637;-72
2022/08/04 07:38:11;;;;;;;3.50;3.20;;;27.50;99.90;;;;;;5047908;28;20215;-73
2022/08/04 07:40:39;;;;;;;3.05;2.85;;;27.50;99.90;;;;;;5045734;28;20207;-73
2022/08/04 07:43:08;;;;;;;5.05;3.30;;;27.60;99.90;;;;;;5042992;28;20218;-74
2022/08/04 07:45:36;;;;;;;5.18;3.10;;;27.70;99.90;;;;;;5046360;28;20222;-75
2022/08/04 07:48:05;;;;;;;5.72;3.38;;;27.80;99.90;;;;;;5046272;28;20223;-77
2022/08/04 07:50:33;;;;;;;3.70;3.38;;;27.90;99.90;;;;;;5044559;28;20202;-78
2022/08/04 07:53:01;;;;;;;3.17;2.97;;;28.00;99.90;;;;;;5047965;28;20242;-76
2022/08/04 07:55:29;;;;;;;3.45;3.15;;;28.00;99.90;;;;;;5044250;28;20218;-77
2022/08/04 07:57:56;;;;;;;4.30;3.78;;;28.00;99.90;;;;;;5044645;28;20221;-76
2022/08/04 08:00:25;;;;;;;2.97;2.78;;;27.90;99.90;;;;;;5045821;28;20217;-79
2022/08/04 08:02:54;;;;;;;3.63;3.33;;;27.90;99.90;;;;;;5041815;28;20306;-78
2022/08/04 08:05:22;;;;;;;3.58;3.28;;;28.10;99.90;;;;;;5045725;28;20219;-76
2022/08/04 08:07:50;;;;;;;3.47;3.13;;;28.40;99.90;;;;;;5042796;28;20265;-76
2022/08/04 08:10:18;;;;;;;3.47;3.10;;;28.80;99.90;;;;;;5039921;28;20203;-82
2022/08/04 08:12:45;;;;;;;3.33;3.05;;;28.90;99.90;;;;;;5041790;28;20583;-80
2022/08/04 08:15:13;;;;;;;3.42;3.22;;;29.00;99.90;;;;;;5039477;28;20234;-79
2022/08/04 08:17:41;;;;;;;5.68;2.90;;;29.10;99.90;;;;;;5043059;28;20282;-78
2022/08/04 08:20:09;;;;;;;3.65;3.20;;;29.10;99.90;;;;;;5048086;28;20211;-80
2022/08/04 08:22:38;;;;;;;3.22;2.92;;;29.20;99.90;;;;;;5049941;28;20227;-79
2022/08/04 08:25:06;;;;;;;3.10;2.83;;;29.10;99.90;;;;;;5045424;28;20701;-83
2022/08/04 08:27:33;;;;;;;3.17;2.97;;;29.20;99.90;;;;;;5049310;28;20221;-80
2022/08/04 08:30:00;;;;;;;3.30;3.00;;;29.30;99.90;;;;;;5045064;28;20200;-79
2022/08/04 08:32:28;;;;;;;3.20;3.00;;;29.30;99.90;;;;;;5048272;28;20234;-78
2022/08/04 08:34:56;;;;;;;3.35;3.08;;;29.20;99.90;;;;;;5049792;28;20380;-79
2022/08/04 08:37:30;;;;;;;4.82;3.13;;;29.10;99.90;;;;;;5048630;28;20219;-79
2022/08/04 08:40:07;;;;;;;2.78;2.58;;;29.20;99.90;;;;;;5046308;28;20223;-82
2022/08/04 08:43:00;;;;;;;3.42;3.10;;;29.20;99.90;;;;;;5046048;28;20227;-81
2022/08/04 08:45:56;;;;;;;7.38;3.10;;;29.10;99.90;;;;;;5093001;22;20312;-77
2022/08/04 08:49:02;;;;;;;3.10;2.80;;;29.10;99.90;;;;;;5050251;28;20659;-78
2022/08/04 08:51:55;;;;;;;2.97;2.78;;;29.40;99.90;;;;;;5050964;28;20252;-77
2022/08/04 08:54:42;;;;;;;3.03;2.83;;;29.40;99.90;;;;;;5024734;28;20253;-77
2022/08/04 08:57:38;;;;;;;3.78;2.95;;;29.60;99.90;;;;;;5055804;28;20221;-77
2022/08/04 09:00:15;;;;;;;3.05;2.75;;;29.80;99.90;;;;;;5042552;28;20210;-77
2022/08/04 09:03:16;;;;;;;3.67;3.33;;;29.80;99.90;;;;;;5051279;28;20309;-77
2022/08/04 09:05:58;;;;;;;3.47;3.17;;;30.00;99.90;;;;;;5056475;28;20213;-77
2022/08/04 09:08:52;;;;;;;2.78;2.58;;;30.10;99.90;;;;;;5059904;28;20419;-77
2022/08/04 09:11:23;;;;;;;3.10;2.90;;;30.20;99.90;;;;;;5055903;28;20187;-77
2022/08/04 09:13:55;;;;;;;4.38;3.17;;;30.40;99.90;;;;;;5067756;28;20211;-77
2022/08/04 09:16:30;;;;;;;3.35;3.00;;;30.30;99.90;;;;;;5054930;28;20221;-77
2022/08/04 09:19:04;;;;;;;3.10;2.90;;;30.30;99.90;;;;;;5057139;28;20403;-77
2022/08/04 09:21:37;;;;;;;3.47;3.20;;;30.30;99.90;;;;;;5056019;28;20201;-78
2022/08/04 09:24:11;;;;;;;3.67;3.30;;;30.30;99.90;;;;;;5056049;28;20206;-75
2022/08/04 09:26:44;;;;;;;3.45;3.15;;;30.40;99.90;;;;;;5058549;28;20195;-77
2022/08/04 09:29:20;;;;;;;3.10;2.90;;;30.40;99.90;;;;;;5050999;28;20211;-77
2022/08/04 09:31:57;;;;;;;3.80;3.47;;;30.60;99.90;;;;;;5056246;28;20652;-77
2022/08/04 09:34:34;;;;;;;4.63;2.70;;;30.90;99.90;;;;;;5064054;28;20221;-78
2022/08/04 09:37:12;;;;;;;2.75;2.55;;;30.90;99.90;;;;;;5067515;28;20661;-78
2022/08/04 09:39:49;;;;;;;3.10;2.90;;;30.90;99.90;;;;;;5049145;28;20190;-78
2022/08/04 09:42:24;;;;;;;3.75;3.00;;;31.10;99.90;;;;;;5070990;28;20237;-78
2022/08/04 09:45:00;;;;;;;3.03;2.65;;;31.20;99.90;;;;;;5053115;28;20225;-78
2022/08/04 09:47:34;;;;;;;3.35;2.70;;;31.10;99.90;;;;;;5053975;28;20603;-78
2022/08/04 09:50:12;;;;;;;2.90;2.70;;;31.10;99.90;;;;;;5066295;28;20205;-77
2022/08/04 09:52:48;;;;;;;2.88;2.67;;;31.30;99.90;;;;;;5049799;28;20222;-77
2022/08/04 09:55:31;;;;;;;2.92;2.63;;;31.50;99.90;;;;;;5060492;28;20705;-77
2022/08/04 09:58:07;;;;;;;2.75;2.55;;;31.50;99.90;;;;;;5049385;28;20246;-77
2022/08/04 10:00:41;;;;;;;2.55;2.35;;;31.40;99.90;;;;;;5052309;28;20198;-77
2022/08/04 10:03:11;;;;;;;2.80;2.60;;;31.50;99.90;;;;;;5045999;28;20265;-78
2022/08/04 10:05:51;;;;;;;2.42;2.22;;;31.60;99.90;;;;;;5054387;28;20223;-76
2022/08/04 10:08:34;;;;;;;2.88;2.67;;;31.80;99.90;;;;;;5055268;28;20221;-77
2022/08/04 10:11:09;;;;;;;2.88;2.67;;;31.80;99.90;;;;;;5052683;28;20572;-77
2022/08/04 10:13:55;;;;;;;2.97;2.75;;;32.00;99.90;;;;;;5057429;28;20229;-76
2022/08/04 10:16:37;;;;;;;3.70;2.88;;;32.10;99.90;;;;;;5054250;28;20219;-78
2022/08/04 10:19:15;;;;;;;2.75;2.55;;;32.20;99.90;;;;;;5057825;28;20220;-77
2022/08/04 10:21:52;;;;;;;2.55;2.35;;;32.20;99.90;;;;;;5056738;28;20248;-77
2022/08/04 10:24:36;;;;;;;3.05;2.63;;;32.20;99.90;;;;;;5058281;28;20186;-77
2022/08/04 10:27:10;;;;;;;2.92;2.72;;;32.20;99.90;;;;;;5050931;28;20229;-77
2022/08/04 10:29:43;;;;;;;2.88;2.67;;;32.30;99.90;;;;;;5051021;28;20209;-78
2022/08/04 10:32:17;;;;;;;3.22;2.92;;;32.50;99.90;;;;;;5068696;28;20214;-78
2022/08/04 10:34:59;;;;;;;2.70;2.60;;;32.60;99.90;;;;;;5053666;28;20223;-77
2022/08/04 10:37:32;;;;;;;3.90;2.83;;;32.50;99.90;;;;;;5047547;28;20230;-77
2022/08/04 10:43:00;;;;;;;2.25;2.05;;;32.40;99.90;;;;;;5050837;28;20732;-77
2022/08/04 10:45:34;;;;;;;2.83;2.63;;;32.60;99.90;;;;;;5059128;28;20300;-77
2022/08/04 10:48:07;;;;;;;2.60;2.40;;;32.70;99.90;;;;;;5061166;28;20310;-77
2022/08/04 10:50:39;;;;;;;2.78;2.58;;;32.60;99.90;;;;;;5054074;28;20549;-77
2022/08/04 10:53:11;;;;;;;2.67;2.47;;;32.50;99.90;;;;;;5059238;28;20226;-77
2022/08/04 10:55:49;;;;;;;2.35;2.17;;;32.30;99.90;;;;;;5047970;28;20739;-78
2022/08/04 10:58:21;;;;;;;2.63;2.33;;;32.30;99.90;;;;;;5053756;28;20704;-77
2022/08/04 11:00:55;;;;;;;2.75;2.53;;;32.40;99.90;;;;;;5057018;28;20656;-78
2022/08/04 11:03:30;;;;;;;2.53;2.33;;;32.50;99.90;;;;;;5062314;28;20221;-77
2022/08/04 11:06:01;;;;;;;2.60;2.40;;;32.50;99.90;;;;;;5065899;28;20310;-78
2022/08/04 11:08:34;;;;;;;2.83;2.63;;;32.20;99.90;;;;;;5053259;28;20246;-77
2022/08/04 11:11:09;;;;;;;2.15;2.03;;;32.30;99.90;;;;;;5054222;28;20191;-77
2022/08/04 11:13:45;;;;;;;2.30;2.20;;;32.20;99.90;;;;;;5049319;28;20230;-77
2022/08/04 11:16:18;;;;;;;2.85;2.65;;;32.40;99.90;;;;;;5057517;28;20214;-78
2022/08/04 11:18:54;;;;;;;2.78;2.55;;;32.50;99.90;;;;;;5045560;28;20573;-77
2022/08/04 11:21:26;;;;;;;2.97;2.78;;;32.40;99.90;;;;;;5052759;28;20254;-78
2022/08/04 11:24:03;;;;;;;2.83;2.50;;;32.30;99.90;;;;;;5056254;28;20210;-77
2022/08/04 11:26:41;;;;;;;3.35;2.08;;;32.30;99.90;;;;;;5052363;28;20282;-78
2022/08/04 11:29:25;;;;;;;2.47;2.28;;;32.60;99.90;;;;;;5028062;28;20223;-78
2022/08/04 11:31:53;;;;;;;2.47;2.28;;;32.90;99.90;;;;;;5028452;28;20630;-74
2022/08/04 11:34:22;;;;;;;2.80;2.08;;;33.00;99.90;;;;;;5052757;28;20210;-77
2022/08/04 11:36:57;;;;;;;2.55;2.00;;;33.30;99.90;;;;;;5052305;28;20196;-77
2022/08/04 11:39:29;;;;;;;1.90;1.80;;;33.40;99.90;;;;;;5060489;28;20235;-77
2022/08/04 11:42:07;;;;;;;2.42;2.25;;;33.50;99.90;;;;;;5054072;28;20202;-77
2022/08/04 11:44:41;;;;;;;3.17;2.30;;;33.50;99.90;;;;;;5060414;28;20588;-77
2022/08/04 11:47:19;;;;;;;2.30;1.90;;;33.50;99.90;;;;;;5059149;28;20242;-78
2022/08/04 11:49:50;;;;;;;2.25;2.10;;;33.50;99.90;;;;;;5052258;28;20189;-77
2022/08/04 11:52:20;;;;;;;2.55;2.35;;;33.50;99.90;;;;;;5055475;28;20309;-77
2022/08/04 11:54:49;;;;;;;3.40;2.22;;;33.60;99.90;;;;;;5055971;28;20222;-78
2022/08/04 11:57:16;;;;;;;2.08;1.92;;;33.60;99.90;;;;;;5054180;28;20214;-76
2022/08/04 11:59:47;;;;;;;5.22;2.22;;;33.70;99.90;;;;;;5043826;28;20206;-76
2022/08/04 12:02:41;;;;;;;2.10;2.00;;;33.80;99.90;;;;;;5063829;28;20585;-77
2022/08/04 12:05:09;;;;;;;2.33;2.13;;;33.80;99.90;;;;;;5055390;28;20725;-79
2022/08/04 12:07:48;;;;;;;2.10;1.90;;;33.90;99.90;;;;;;5051885;28;20241;-78
2022/08/04 12:10:26;;;;;;;4.10;2.30;;;34.00;99.90;;;;;;5061575;28;20199;-78
2022/08/04 12:13:03;;;;;;;2.60;2.38;;;34.10;99.90;;;;;;5048678;28;20696;-78
2022/08/04 12:15:36;;;;;;;2.83;2.30;;;34.20;99.90;;;;;;5055443;28;20214;-77
2022/08/04 12:18:14;;;;;;;2.38;2.25;;;34.20;99.90;;;;;;5048315;28;20217;-78
2022/08/04 12:20:47;;;;;;;2.45;2.20;;;34.20;99.90;;;;;;5065153;28;20194;-78
2022/08/04 12:23:22;;;;;;;2.50;2.30;;;34.20;99.90;;;;;;5052373;28;20272;-75
2022/08/04 12:25:53;;;;;;;3.38;2.28;;;34.20;99.90;;;;;;5048221;28;20692;-75
2022/08/04 12:28:26;;;;;;;3.10;2.28;;;34.20;99.90;;;;;;5054343;28;20214;-75
2022/08/04 12:31:02;;;;;;;2.30;2.13;;;34.40;99.90;;;;;;5050030;28;20222;-76
2022/08/04 12:33:38;;;;;;;2.35;2.15;;;34.50;99.90;;;;;;5055847;28;20627;-77
2022/08/04 12:36:18;;;;;;;2.15;1.95;;;34.60;99.90;;;;;;5063211;28;20590;-77
2022/08/04 12:38:52;;;;;;;1.80;1.70;;;34.60;99.90;;;;;;5059541;28;20230;-75
2022/08/04 12:41:24;;;;;;;3.30;2.17;;;34.50;99.90;;;;;;5041834;28;20201;-76
2022/08/04 12:43:54;;;;;;;3.70;2.22;;;34.60;99.90;;;;;;5055505;28;20709;-76
2022/08/04 12:46:24;;;;;;;3.00;1.95;;;34.50;99.90;;;;;;5052384;28;20223;-75
2022/08/04 12:48:53;;;;;;;2.55;2.13;;;34.50;99.90;;;;;;5054323;28;20222;-76
2022/08/04 12:51:22;;;;;;;2.85;2.08;;;34.60;99.90;;;;;;5053776;28;20246;-75
2022/08/04 12:53:51;;;;;;;2.50;2.30;;;34.50;99.90;;;;;;5053547;28;20222;-77
2022/08/04 12:56:26;;;;;;;2.70;2.50;;;34.60;99.90;;;;;;5049184;28;20225;-76
2022/08/04 12:59:00;;;;;;;3.17;2.10;;;34.50;99.90;;;;;;5056647;28;20221;-76
2022/08/04 13:01:29;;;;;;;2.70;2.50;;;34.60;99.90;;;;;;5060169;28;20195;-77
2022/08/04 13:04:01;;;;;;;2.55;2.30;;;34.50;99.90;;;;;;5055533;28;20631;-76
2022/08/04 13:06:31;;;;;;;2.95;2.53;;;34.50;99.90;;;;;;5060623;28;20221;-77
2022/08/04 13:09:05;;;;;;;2.58;2.30;;;34.50;99.90;;;;;;5047553;28;20223;-76
2022/08/04 13:11:37;;;;;;;2.63;2.20;;;34.60;99.90;;;;;;5058900;28;20197;-77
2022/08/04 13:14:05;;;;;;;2.40;2.15;;;34.70;99.90;;;;;;5050865;28;20310;-74
2022/08/04 13:16:34;;;;;;;2.60;2.40;;;34.70;99.90;;;;;;5048112;28;20195;-77
2022/08/04 13:19:02;;;;;;;2.50;2.30;;;34.70;99.90;;;;;;5055449;28;20218;-76
2022/08/04 13:21:30;;;;;;;2.22;2.13;;;34.70;99.90;;;;;;5051486;28;20200;-75
2022/08/04 13:24:02;;;;;;;2.63;2.22;;;34.60;99.90;;;;;;5049607;28;20589;-75
2022/08/04 13:26:30;;;;;;;2.40;2.20;;;34.50;99.90;;;;;;5049822;28;20202;-75
2022/08/04 13:29:01;;;;;;;3.28;2.55;;;34.60;99.90;;;;;;5056160;28;20587;-76
2022/08/04 13:31:30;;;;;;;2.20;2.10;;;34.60;99.90;;;;;;5051998;28;20200;-74
2022/08/04 13:34:09;;;;;;;2.00;1.90;;;34.50;99.90;;;;;;5041395;28;20706;-75
2022/08/04 13:36:37;;;;;;;4.05;2.30;;;34.50;99.90;;;;;;5040042;28;20674;-76